EDFM/MHG METAR and TAF weather

Enter ICAO airport designator
Station Type Date Time Source
EDFM METAR 2022/01/26 19:20 UTC NOAA

EDFM 261920Z 21005KT 170V250 9999 OVC013 01/M01 Q1033


Station Type Date Time Source
EDFM Decoded METAR 2022/01/26 19:20 UTC NOAA

Baden Wurttemberg, Neuostheim, Germany (EDFM) 49-28-21N 008-30-56E
Jan 26, 2022 - 02:20 PM EST / 2022.01.26 1920 UTC
Wind: from the SSW (210 degrees) at 6 MPH (5 KT) (direction variable):0
Visibility: greater than 7 mile(s):0
Sky conditions: overcast
Temperature: 33 F (1 C)
Windchill: 26 F (-3 C):1
Dew Point: 30 F (-1 C)
Relative Humidity: 86%
Pressure (altimeter): 30.50 in. Hg (1033 hPa)
ob: EDFM 261920Z 21005KT 170V250 9999 OVC013 01/M01 Q1033
cycle: 19

Station Type Date Time Source
EDFM TAF 2012/03/06 06:30 UTC NOAA

TAF EDFM 060519Z 0606/0621 15004KT 9999 FEW040

Example: see airport list